sensor_id;sensor_type;location;lat;lon;timestamp;P1;durP1;ratioP1;P2;durP2;ratioP2
9970;SDS011;5026;51.494;11.974;2023-07-24T00:02:12;3.92;;;1.92;;
9970;SDS011;5026;51.494;11.974;2023-07-24T00:04:41;4.38;;;2.28;;
9970;SDS011;5026;51.494;11.974;2023-07-24T00:07:07;5.43;;;2.28;;
9970;SDS011;5026;51.494;11.974;2023-07-24T00:09:35;2.70;;;1.48;;
9970;SDS011;5026;51.494;11.974;2023-07-24T00:12:02;3.60;;;1.70;;
9970;SDS011;5026;51.494;11.974;2023-07-24T00:14:29;5.32;;;2.25;;
9970;SDS011;5026;51.494;11.974;2023-07-24T00:16:55;3.25;;;1.80;;
9970;SDS011;5026;51.494;11.974;2023-07-24T00:19:22;4.10;;;2.03;;
9970;SDS011;5026;51.494;11.974;2023-07-24T00:21:51;5.20;;;2.15;;
9970;SDS011;5026;51.494;11.974;2023-07-24T00:24:18;3.47;;;1.77;;
9970;SDS011;5026;51.494;11.974;2023-07-24T00:26:45;3.22;;;1.42;;
9970;SDS011;5026;51.494;11.974;2023-07-24T00:29:12;5.40;;;2.00;;
9970;SDS011;5026;51.494;11.974;2023-07-24T00:31:39;5.00;;;1.92;;
9970;SDS011;5026;51.494;11.974;2023-07-24T00:34:06;2.60;;;1.48;;
9970;SDS011;5026;51.494;11.974;2023-07-24T00:36:33;5.85;;;2.42;;
9970;SDS011;5026;51.494;11.974;2023-07-24T00:39:01;5.18;;;2.00;;
9970;SDS011;5026;51.494;11.974;2023-07-24T00:41:28;5.82;;;2.35;;
9970;SDS011;5026;51.494;11.974;2023-07-24T00:43:55;3.38;;;1.73;;
9970;SDS011;5026;51.494;11.974;2023-07-24T00:46:22;3.90;;;1.92;;
9970;SDS011;5026;51.494;11.974;2023-07-24T00:48:49;4.00;;;1.75;;
9970;SDS011;5026;51.494;11.974;2023-07-24T00:51:17;4.80;;;1.75;;
9970;SDS011;5026;51.494;11.974;2023-07-24T00:53:44;3.50;;;1.63;;
9970;SDS011;5026;51.494;11.974;2023-07-24T00:56:14;3.28;;;1.67;;
9970;SDS011;5026;51.494;11.974;2023-07-24T00:58:41;4.80;;;2.00;;
9970;SDS011;5026;51.494;11.974;2023-07-24T01:01:08;4.70;;;1.90;;
9970;SDS011;5026;51.494;11.974;2023-07-24T01:03:37;5.97;;;2.42;;
9970;SDS011;5026;51.494;11.974;2023-07-24T01:06:05;3.45;;;1.80;;
9970;SDS011;5026;51.494;11.974;2023-07-24T01:08:32;6.75;;;2.10;;
9970;SDS011;5026;51.494;11.974;2023-07-24T01:11:00;4.50;;;2.05;;
9970;SDS011;5026;51.494;11.974;2023-07-24T01:13:32;6.57;;;2.90;;
9970;SDS011;5026;51.494;11.974;2023-07-24T01:16:04;3.28;;;1.70;;
9970;SDS011;5026;51.494;11.974;2023-07-24T01:18:34;7.88;;;2.67;;
9970;SDS011;5026;51.494;11.974;2023-07-24T01:21:03;4.07;;;1.50;;
9970;SDS011;5026;51.494;11.974;2023-07-24T01:23:37;4.78;;;2.22;;
9970;SDS011;5026;51.494;11.974;2023-07-24T01:26:12;4.38;;;1.67;;
9970;SDS011;5026;51.494;11.974;2023-07-24T01:28:39;3.35;;;1.60;;
9970;SDS011;5026;51.494;11.974;2023-07-24T01:31:06;3.88;;;1.80;;
9970;SDS011;5026;51.494;11.974;2023-07-24T01:33:33;3.30;;;1.48;;
9970;SDS011;5026;51.494;11.974;2023-07-24T01:36:01;5.43;;;1.70;;
9970;SDS011;5026;51.494;11.974;2023-07-24T01:38:30;6.93;;;2.33;;
9970;SDS011;5026;51.494;11.974;2023-07-24T01:40:58;5.20;;;2.13;;
9970;SDS011;5026;51.494;11.974;2023-07-24T01:43:27;6.70;;;2.67;;
9970;SDS011;5026;51.494;11.974;2023-07-24T01:45:55;4.75;;;2.03;;
9970;SDS011;5026;51.494;11.974;2023-07-24T01:48:23;4.85;;;2.13;;
9970;SDS011;5026;51.494;11.974;2023-07-24T01:50:50;4.38;;;1.58;;
9970;SDS011;5026;51.494;11.974;2023-07-24T01:53:17;3.92;;;1.70;;
9970;SDS011;5026;51.494;11.974;2023-07-24T01:55:44;4.07;;;1.85;;
9970;SDS011;5026;51.494;11.974;2023-07-24T01:58:11;5.18;;;1.95;;
9970;SDS011;5026;51.494;11.974;2023-07-24T02:00:39;3.17;;;1.75;;
9970;SDS011;5026;51.494;11.974;2023-07-24T02:03:06;3.58;;;1.95;;
9970;SDS011;5026;51.494;11.974;2023-07-24T02:05:33;4.68;;;2.10;;
9970;SDS011;5026;51.494;11.974;2023-07-24T02:08:01;7.00;;;2.42;;
9970;SDS011;5026;51.494;11.974;2023-07-24T02:10:28;7.13;;;2.13;;
9970;SDS011;5026;51.494;11.974;2023-07-24T02:12:55;5.00;;;1.75;;
9970;SDS011;5026;51.494;11.974;2023-07-24T02:15:22;4.05;;;1.80;;
9970;SDS011;5026;51.494;11.974;2023-07-24T02:17:50;4.20;;;2.13;;
9970;SDS011;5026;51.494;11.974;2023-07-24T02:20:18;3.60;;;1.70;;
9970;SDS011;5026;51.494;11.974;2023-07-24T02:22:44;5.45;;;2.75;;
9970;SDS011;5026;51.494;11.974;2023-07-24T02:25:11;6.05;;;2.08;;
9970;SDS011;5026;51.494;11.974;2023-07-24T02:27:38;3.88;;;1.73;;
9970;SDS011;5026;51.494;11.974;2023-07-24T02:30:05;5.95;;;1.98;;
9970;SDS011;5026;51.494;11.974;2023-07-24T02:32:33;5.13;;;1.85;;
9970;SDS011;5026;51.494;11.974;2023-07-24T02:35:01;4.57;;;1.88;;
9970;SDS011;5026;51.494;11.974;2023-07-24T02:37:28;4.97;;;2.22;;
9970;SDS011;5026;51.494;11.974;2023-07-24T02:39:55;3.97;;;1.55;;
9970;SDS011;5026;51.494;11.974;2023-07-24T02:42:22;3.00;;;1.65;;
9970;SDS011;5026;51.494;11.974;2023-07-24T02:44:49;6.40;;;2.13;;
9970;SDS011;5026;51.494;11.974;2023-07-24T02:47:18;6.20;;;1.70;;
9970;SDS011;5026;51.494;11.974;2023-07-24T02:49:45;4.15;;;1.92;;
9970;SDS011;5026;51.494;11.974;2023-07-24T02:52:13;3.92;;;1.95;;
9970;SDS011;5026;51.494;11.974;2023-07-24T02:54:40;2.60;;;1.55;;
9970;SDS011;5026;51.494;11.974;2023-07-24T02:57:07;4.10;;;2.15;;
9970;SDS011;5026;51.494;11.974;2023-07-24T02:59:34;7.45;;;2.97;;
9970;SDS011;5026;51.494;11.974;2023-07-24T03:02:01;4.80;;;2.15;;
9970;SDS011;5026;51.494;11.974;2023-07-24T03:04:28;4.43;;;1.75;;
9970;SDS011;5026;51.494;11.974;2023-07-24T03:06:56;5.20;;;2.47;;
9970;SDS011;5026;51.494;11.974;2023-07-24T03:09:24;5.57;;;2.50;;
9970;SDS011;5026;51.494;11.974;2023-07-24T03:11:51;4.03;;;1.85;;
9970;SDS011;5026;51.494;11.974;2023-07-24T03:14:18;4.03;;;2.08;;
9970;SDS011;5026;51.494;11.974;2023-07-24T03:16:45;5.82;;;2.20;;
9970;SDS011;5026;51.494;11.974;2023-07-24T03:19:12;4.72;;;2.25;;
9970;SDS011;5026;51.494;11.974;2023-07-24T03:21:42;4.60;;;2.25;;
9970;SDS011;5026;51.494;11.974;2023-07-24T03:24:09;5.75;;;2.25;;
9970;SDS011;5026;51.494;11.974;2023-07-24T03:26:38;4.53;;;2.08;;
9970;SDS011;5026;51.494;11.974;2023-07-24T03:29:05;5.53;;;2.45;;
9970;SDS011;5026;51.494;11.974;2023-07-24T03:31:32;7.32;;;2.83;;
9970;SDS011;5026;51.494;11.974;2023-07-24T03:33:59;5.15;;;2.30;;
9970;SDS011;5026;51.494;11.974;2023-07-24T03:36:26;5.63;;;2.42;;
9970;SDS011;5026;51.494;11.974;2023-07-24T03:38:53;4.28;;;2.47;;
9970;SDS011;5026;51.494;11.974;2023-07-24T03:41:20;9.27;;;2.10;;
9970;SDS011;5026;51.494;11.974;2023-07-24T03:43:49;5.45;;;2.38;;
9970;SDS011;5026;51.494;11.974;2023-07-24T03:46:15;4.93;;;2.15;;
9970;SDS011;5026;51.494;11.974;2023-07-24T03:48:42;8.93;;;2.50;;
9970;SDS011;5026;51.494;11.974;2023-07-24T03:51:09;5.75;;;3.17;;
9970;SDS011;5026;51.494;11.974;2023-07-24T03:53:36;7.13;;;2.88;;
9970;SDS011;5026;51.494;11.974;2023-07-24T03:56:03;3.92;;;2.08;;
9970;SDS011;5026;51.494;11.974;2023-07-24T03:58:31;4.72;;;2.42;;
9970;SDS011;5026;51.494;11.974;2023-07-24T04:00:59;8.18;;;3.25;;
9970;SDS011;5026;51.494;11.974;2023-07-24T04:03:26;10.10;;;3.63;;
9970;SDS011;5026;51.494;11.974;2023-07-24T04:05:53;6.65;;;2.60;;
9970;SDS011;5026;51.494;11.974;2023-07-24T04:08:20;5.85;;;2.55;;
9970;SDS011;5026;51.494;11.974;2023-07-24T04:10:47;3.55;;;2.25;;
9970;SDS011;5026;51.494;11.974;2023-07-24T04:13:14;4.07;;;2.30;;
9970;SDS011;5026;51.494;11.974;2023-07-24T04:15:41;7.53;;;2.63;;
9970;SDS011;5026;51.494;11.974;2023-07-24T04:18:10;6.85;;;2.90;;
9970;SDS011;5026;51.494;11.974;2023-07-24T04:20:38;8.23;;;3.20;;
9970;SDS011;5026;51.494;11.974;2023-07-24T04:23:04;8.50;;;3.78;;
9970;SDS011;5026;51.494;11.974;2023-07-24T04:25:31;8.98;;;3.97;;
9970;SDS011;5026;51.494;11.974;2023-07-24T04:27:59;7.88;;;3.78;;
9970;SDS011;5026;51.494;11.974;2023-07-24T04:30:26;8.65;;;3.90;;
9970;SDS011;5026;51.494;11.974;2023-07-24T04:32:53;9.52;;;4.00;;
9970;SDS011;5026;51.494;11.974;2023-07-24T04:35:21;8.80;;;4.18;;
9970;SDS011;5026;51.494;11.974;2023-07-24T04:37:48;11.57;;;4.13;;
9970;SDS011;5026;51.494;11.974;2023-07-24T04:40:17;4.95;;;3.28;;
9970;SDS011;5026;51.494;11.974;2023-07-24T04:42:43;6.07;;;3.22;;
9970;SDS011;5026;51.494;11.974;2023-07-24T04:45:11;5.32;;;2.75;;
9970;SDS011;5026;51.494;11.974;2023-07-24T04:47:38;10.07;;;3.70;;
9970;SDS011;5026;51.494;11.974;2023-07-24T04:50:05;4.55;;;2.53;;
9970;SDS011;5026;51.494;11.974;2023-07-24T04:52:34;5.47;;;3.00;;
9970;SDS011;5026;51.494;11.974;2023-07-24T04:55:01;5.57;;;2.50;;
9970;SDS011;5026;51.494;11.974;2023-07-24T04:57:28;4.25;;;2.50;;
9970;SDS011;5026;51.494;11.974;2023-07-24T04:59:55;5.75;;;2.90;;
9970;SDS011;5026;51.494;11.974;2023-07-24T05:02:21;6.40;;;3.03;;
9970;SDS011;5026;51.494;11.974;2023-07-24T05:04:49;9.30;;;3.65;;
9970;SDS011;5026;51.494;11.974;2023-07-24T05:07:16;8.77;;;3.22;;
9970;SDS011;5026;51.494;11.974;2023-07-24T05:09:44;8.50;;;3.90;;
9970;SDS011;5026;51.494;11.974;2023-07-24T05:12:11;6.50;;;3.80;;
9970;SDS011;5026;51.494;11.974;2023-07-24T05:14:38;6.13;;;3.08;;
9970;SDS011;5026;51.494;11.974;2023-07-24T05:17:05;5.25;;;2.72;;
9970;SDS011;5026;51.494;11.974;2023-07-24T05:19:31;11.05;;;3.47;;
9970;SDS011;5026;51.494;11.974;2023-07-24T05:21:59;6.68;;;3.55;;
9970;SDS011;5026;51.494;11.974;2023-07-24T05:24:26;8.68;;;4.32;;
9970;SDS011;5026;51.494;11.974;2023-07-24T05:26:54;6.70;;;3.17;;
9970;SDS011;5026;51.494;11.974;2023-07-24T05:29:21;5.82;;;3.45;;
9970;SDS011;5026;51.494;11.974;2023-07-24T05:31:48;4.45;;;2.65;;
9970;SDS011;5026;51.494;11.974;2023-07-24T05:34:15;4.90;;;2.40;;
9970;SDS011;5026;51.494;11.974;2023-07-24T05:36:42;5.78;;;2.90;;
9970;SDS011;5026;51.494;11.974;2023-07-24T05:39:09;6.07;;;3.08;;
9970;SDS011;5026;51.494;11.974;2023-07-24T05:41:36;9.13;;;4.35;;
9970;SDS011;5026;51.494;11.974;2023-07-24T05:44:05;5.53;;;3.10;;
9970;SDS011;5026;51.494;11.974;2023-07-24T05:46:32;4.85;;;2.90;;
9970;SDS011;5026;51.494;11.974;2023-07-24T05:48:59;5.63;;;3.20;;
9970;SDS011;5026;51.494;11.974;2023-07-24T05:51:26;7.05;;;3.58;;
9970;SDS011;5026;51.494;11.974;2023-07-24T05:53:53;4.30;;;2.78;;
9970;SDS011;5026;51.494;11.974;2023-07-24T05:56:20;6.85;;;3.38;;
9970;SDS011;5026;51.494;11.974;2023-07-24T05:58:47;5.55;;;2.90;;
9970;SDS011;5026;51.494;11.974;2023-07-24T06:01:17;6.57;;;3.00;;
9970;SDS011;5026;51.494;11.974;2023-07-24T06:03:44;8.75;;;3.35;;
9970;SDS011;5026;51.494;11.974;2023-07-24T06:06:11;7.72;;;2.50;;
9970;SDS011;5026;51.494;11.974;2023-07-24T06:08:38;5.72;;;3.58;;
9970;SDS011;5026;51.494;11.974;2023-07-24T06:11:05;4.32;;;2.72;;
9970;SDS011;5026;51.494;11.974;2023-07-24T06:13:32;7.57;;;4.05;;
9970;SDS011;5026;51.494;11.974;2023-07-24T06:15:59;4.82;;;3.10;;
9970;SDS011;5026;51.494;11.974;2023-07-24T06:18:27;4.93;;;3.33;;
9970;SDS011;5026;51.494;11.974;2023-07-24T06:20:54;5.07;;;2.90;;
9970;SDS011;5026;51.494;11.974;2023-07-24T06:23:21;4.90;;;2.95;;
9970;SDS011;5026;51.494;11.974;2023-07-24T06:25:48;10.63;;;3.70;;
9970;SDS011;5026;51.494;11.974;2023-07-24T06:28:16;6.65;;;3.15;;
9970;SDS011;5026;51.494;11.974;2023-07-24T06:30:43;6.72;;;3.00;;
9970;SDS011;5026;51.494;11.974;2023-07-24T06:33:10;5.20;;;3.67;;
9970;SDS011;5026;51.494;11.974;2023-07-24T06:35:39;5.95;;;3.05;;
9970;SDS011;5026;51.494;11.974;2023-07-24T06:38:06;4.63;;;3.53;;
9970;SDS011;5026;51.494;11.974;2023-07-24T06:40:33;5.43;;;3.10;;
9970;SDS011;5026;51.494;11.974;2023-07-24T06:43:00;6.60;;;3.58;;
9970;SDS011;5026;51.494;11.974;2023-07-24T06:45:27;7.75;;;3.60;;
9970;SDS011;5026;51.494;11.974;2023-07-24T06:47:54;4.32;;;2.85;;
9970;SDS011;5026;51.494;11.974;2023-07-24T06:50:21;4.25;;;3.17;;
9970;SDS011;5026;51.494;11.974;2023-07-24T06:52:50;6.15;;;4.03;;
9970;SDS011;5026;51.494;11.974;2023-07-24T06:55:18;5.35;;;3.40;;
9970;SDS011;5026;51.494;11.974;2023-07-24T06:57:45;5.60;;;3.38;;
9970;SDS011;5026;51.494;11.974;2023-07-24T07:00:13;5.13;;;3.22;;
9970;SDS011;5026;51.494;11.974;2023-07-24T07:02:40;6.75;;;3.25;;
9970;SDS011;5026;51.494;11.974;2023-07-24T07:05:07;5.75;;;3.10;;
9970;SDS011;5026;51.494;11.974;2023-07-24T07:07:34;10.05;;;3.63;;
9970;SDS011;5026;51.494;11.974;2023-07-24T07:10:03;6.22;;;3.35;;
9970;SDS011;5026;51.494;11.974;2023-07-24T07:12:30;5.30;;;2.78;;
9970;SDS011;5026;51.494;11.974;2023-07-24T07:14:57;5.18;;;3.03;;
9970;SDS011;5026;51.494;11.974;2023-07-24T07:17:24;6.53;;;3.20;;
9970;SDS011;5026;51.494;11.974;2023-07-24T07:19:51;4.50;;;3.03;;
9970;SDS011;5026;51.494;11.974;2023-07-24T07:22:18;3.35;;;2.50;;
9970;SDS011;5026;51.494;11.974;2023-07-24T07:24:45;6.40;;;3.00;;
9970;SDS011;5026;51.494;11.974;2023-07-24T07:27:13;7.22;;;3.35;;
9970;SDS011;5026;51.494;11.974;2023-07-24T07:29:42;5.80;;;2.97;;
9970;SDS011;5026;51.494;11.974;2023-07-24T07:32:09;4.53;;;3.30;;
9970;SDS011;5026;51.494;11.974;2023-07-24T07:34:36;6.78;;;3.50;;
9970;SDS011;5026;51.494;11.974;2023-07-24T07:37:04;6.63;;;3.42;;
9970;SDS011;5026;51.494;11.974;2023-07-24T07:39:31;8.75;;;4.32;;
9970;SDS011;5026;51.494;11.974;2023-07-24T07:41:58;9.25;;;4.32;;
9970;SDS011;5026;51.494;11.974;2023-07-24T07:44:26;10.05;;;4.65;;
9970;SDS011;5026;51.494;11.974;2023-07-24T07:46:53;10.25;;;4.50;;
9970;SDS011;5026;51.494;11.974;2023-07-24T07:49:20;8.15;;;3.70;;
9970;SDS011;5026;51.494;11.974;2023-07-24T07:51:48;10.02;;;4.07;;
9970;SDS011;5026;51.494;11.974;2023-07-24T07:54:15;8.27;;;3.92;;
9970;SDS011;5026;51.494;11.974;2023-07-24T07:56:41;8.70;;;3.17;;
9970;SDS011;5026;51.494;11.974;2023-07-24T07:59:09;7.90;;;4.05;;
9970;SDS011;5026;51.494;11.974;2023-07-24T08:01:37;9.88;;;4.03;;
9970;SDS011;5026;51.494;11.974;2023-07-24T08:04:05;8.70;;;4.10;;
9970;SDS011;5026;51.494;11.974;2023-07-24T08:06:32;10.00;;;4.28;;
9970;SDS011;5026;51.494;11.974;2023-07-24T08:08:59;7.28;;;3.58;;
9970;SDS011;5026;51.494;11.974;2023-07-24T08:11:26;7.88;;;4.28;;
9970;SDS011;5026;51.494;11.974;2023-07-24T08:13:53;10.23;;;4.07;;
9970;SDS011;5026;51.494;11.974;2023-07-24T08:16:20;6.07;;;4.03;;
9970;SDS011;5026;51.494;11.974;2023-07-24T08:18:49;5.57;;;3.80;;
9970;SDS011;5026;51.494;11.974;2023-07-24T08:21:16;7.43;;;3.95;;
9970;SDS011;5026;51.494;11.974;2023-07-24T08:23:43;5.28;;;3.67;;
9970;SDS011;5026;51.494;11.974;2023-07-24T08:26:10;6.85;;;3.63;;
9970;SDS011;5026;51.494;11.974;2023-07-24T08:28:37;7.00;;;3.97;;
9970;SDS011;5026;51.494;11.974;2023-07-24T08:31:07;6.80;;;4.10;;
9970;SDS011;5026;51.494;11.974;2023-07-24T08:33:34;8.35;;;4.30;;
9970;SDS011;5026;51.494;11.974;2023-07-24T08:36:03;4.78;;;3.35;;
9970;SDS011;5026;51.494;11.974;2023-07-24T08:38:30;5.80;;;3.67;;
9970;SDS011;5026;51.494;11.974;2023-07-24T08:41:01;4.88;;;3.55;;
9970;SDS011;5026;51.494;11.974;2023-07-24T08:43:29;7.40;;;3.67;;
9970;SDS011;5026;51.494;11.974;2023-07-24T08:45:57;7.82;;;4.03;;
9970;SDS011;5026;51.494;11.974;2023-07-24T08:48:25;6.72;;;3.42;;
9970;SDS011;5026;51.494;11.974;2023-07-24T08:50:53;8.10;;;3.95;;
9970;SDS011;5026;51.494;11.974;2023-07-24T08:53:21;7.57;;;3.97;;
9970;SDS011;5026;51.494;11.974;2023-07-24T08:55:50;8.60;;;4.22;;
9970;SDS011;5026;51.494;11.974;2023-07-24T08:58:19;9.18;;;4.80;;
9970;SDS011;5026;51.494;11.974;2023-07-24T09:00:47;8.15;;;3.70;;
9970;SDS011;5026;51.494;11.974;2023-07-24T09:03:16;6.13;;;3.58;;
9970;SDS011;5026;51.494;11.974;2023-07-24T09:05:43;14.55;;;5.40;;
9970;SDS011;5026;51.494;11.974;2023-07-24T09:08:10;7.30;;;3.38;;
9970;SDS011;5026;51.494;11.974;2023-07-24T09:10:38;6.18;;;3.20;;
9970;SDS011;5026;51.494;11.974;2023-07-24T09:13:05;6.35;;;3.22;;
9970;SDS011;5026;51.494;11.974;2023-07-24T09:15:39;7.85;;;4.28;;
9970;SDS011;5026;51.494;11.974;2023-07-24T09:18:06;6.90;;;4.07;;
9970;SDS011;5026;51.494;11.974;2023-07-24T09:20:37;5.78;;;3.78;;
9970;SDS011;5026;51.494;11.974;2023-07-24T09:23:05;6.43;;;3.95;;
9970;SDS011;5026;51.494;11.974;2023-07-24T09:25:32;6.05;;;4.15;;
9970;SDS011;5026;51.494;11.974;2023-07-24T09:28:01;5.78;;;3.78;;
9970;SDS011;5026;51.494;11.974;2023-07-24T09:30:35;13.82;;;3.95;;
9970;SDS011;5026;51.494;11.974;2023-07-24T09:33:03;6.45;;;4.03;;
9970;SDS011;5026;51.494;11.974;2023-07-24T09:35:30;7.95;;;4.90;;
9970;SDS011;5026;51.494;11.974;2023-07-24T09:38:04;6.85;;;4.25;;
9970;SDS011;5026;51.494;11.974;2023-07-24T09:40:38;6.47;;;3.95;;
9970;SDS011;5026;51.494;11.974;2023-07-24T09:43:17;5.75;;;4.00;;
9970;SDS011;5026;51.494;11.974;2023-07-24T09:45:44;6.20;;;4.07;;
9970;SDS011;5026;51.494;11.974;2023-07-24T09:48:12;4.78;;;4.03;;
9970;SDS011;5026;51.494;11.974;2023-07-24T09:50:41;8.57;;;4.75;;
9970;SDS011;5026;51.494;11.974;2023-07-24T09:53:11;9.43;;;4.38;;
9970;SDS011;5026;51.494;11.974;2023-07-24T09:55:43;8.75;;;4.38;;
9970;SDS011;5026;51.494;11.974;2023-07-24T09:58:19;8.75;;;4.28;;
9970;SDS011;5026;51.494;11.974;2023-07-24T10:00:48;7.55;;;4.47;;
9970;SDS011;5026;51.494;11.974;2023-07-24T10:03:16;8.82;;;3.95;;
9970;SDS011;5026;51.494;11.974;2023-07-24T10:05:45;9.13;;;4.85;;
9970;SDS011;5026;51.494;11.974;2023-07-24T10:08:14;7.15;;;4.50;;
9970;SDS011;5026;51.494;11.974;2023-07-24T10:10:41;7.60;;;4.30;;
9970;SDS011;5026;51.494;11.974;2023-07-24T10:13:08;8.40;;;4.38;;
9970;SDS011;5026;51.494;11.974;2023-07-24T10:15:39;8.50;;;4.47;;
9970;SDS011;5026;51.494;11.974;2023-07-24T10:18:07;7.57;;;4.70;;
9970;SDS011;5026;51.494;11.974;2023-07-24T10:20:35;7.60;;;4.20;;
9970;SDS011;5026;51.494;11.974;2023-07-24T10:23:03;5.38;;;4.40;;
9970;SDS011;5026;51.494;11.974;2023-07-24T10:25:32;8.98;;;5.13;;
9970;SDS011;5026;51.494;11.974;2023-07-24T10:28:02;8.55;;;4.60;;
9970;SDS011;5026;51.494;11.974;2023-07-24T10:30:32;9.85;;;4.90;;
9970;SDS011;5026;51.494;11.974;2023-07-24T10:33:05;7.97;;;5.45;;
9970;SDS011;5026;51.494;11.974;2023-07-24T10:35:39;10.32;;;5.60;;
9970;SDS011;5026;51.494;11.974;2023-07-24T10:38:07;6.13;;;4.78;;
9970;SDS011;5026;51.494;11.974;2023-07-24T10:40:35;7.15;;;5.00;;
9970;SDS011;5026;51.494;11.974;2023-07-24T10:43:05;8.10;;;5.05;;
9970;SDS011;5026;51.494;11.974;2023-07-24T10:45:45;9.45;;;5.15;;
9970;SDS011;5026;51.494;11.974;2023-07-24T10:48:15;8.38;;;5.15;;
9970;SDS011;5026;51.494;11.974;2023-07-24T10:50:43;9.35;;;4.63;;
9970;SDS011;5026;51.494;11.974;2023-07-24T10:53:13;8.32;;;4.90;;
9970;SDS011;5026;51.494;11.974;2023-07-24T10:55:41;8.02;;;4.82;;
9970;SDS011;5026;51.494;11.974;2023-07-24T10:58:09;6.13;;;4.18;;
9970;SDS011;5026;51.494;11.974;2023-07-24T11:00:36;9.82;;;5.28;;
9970;SDS011;5026;51.494;11.974;2023-07-24T11:03:04;10.68;;;5.03;;
9970;SDS011;5026;51.494;11.974;2023-07-24T11:05:33;11.35;;;5.70;;
9970;SDS011;5026;51.494;11.974;2023-07-24T11:08:00;9.63;;;5.18;;
9970;SDS011;5026;51.494;11.974;2023-07-24T11:10:34;8.50;;;5.03;;
9970;SDS011;5026;51.494;11.974;2023-07-24T11:13:01;9.00;;;4.65;;
9970;SDS011;5026;51.494;11.974;2023-07-24T11:15:28;10.95;;;5.47;;
9970;SDS011;5026;51.494;11.974;2023-07-24T11:17:54;9.77;;;5.10;;
9970;SDS011;5026;51.494;11.974;2023-07-24T11:20:22;5.85;;;4.28;;
9970;SDS011;5026;51.494;11.974;2023-07-24T11:22:50;10.82;;;5.45;;
9970;SDS011;5026;51.494;11.974;2023-07-24T11:25:17;6.78;;;4.68;;
9970;SDS011;5026;51.494;11.974;2023-07-24T11:27:44;8.95;;;4.97;;
9970;SDS011;5026;51.494;11.974;2023-07-24T11:30:12;7.57;;;4.47;;
9970;SDS011;5026;51.494;11.974;2023-07-24T11:32:45;10.70;;;5.30;;
9970;SDS011;5026;51.494;11.974;2023-07-24T11:35:12;7.90;;;5.05;;
9970;SDS011;5026;51.494;11.974;2023-07-24T11:37:40;10.18;;;5.25;;
9970;SDS011;5026;51.494;11.974;2023-07-24T11:40:09;9.68;;;5.20;;
9970;SDS011;5026;51.494;11.974;2023-07-24T11:42:39;11.20;;;5.38;;
9970;SDS011;5026;51.494;11.974;2023-07-24T11:45:09;10.15;;;5.40;;
9970;SDS011;5026;51.494;11.974;2023-07-24T11:47:43;12.02;;;5.75;;
9970;SDS011;5026;51.494;11.974;2023-07-24T11:50:10;11.15;;;5.72;;
9970;SDS011;5026;51.494;11.974;2023-07-24T11:52:38;7.70;;;5.20;;
9970;SDS011;5026;51.494;11.974;2023-07-24T11:55:06;10.52;;;5.47;;
9970;SDS011;5026;51.494;11.974;2023-07-24T11:57:35;9.10;;;4.95;;
9970;SDS011;5026;51.494;11.974;2023-07-24T12:00:02;7.45;;;4.63;;
9970;SDS011;5026;51.494;11.974;2023-07-24T12:02:31;9.70;;;4.80;;
9970;SDS011;5026;51.494;11.974;2023-07-24T12:04:59;13.18;;;6.07;;
9970;SDS011;5026;51.494;11.974;2023-07-24T12:07:31;15.95;;;5.78;;
9970;SDS011;5026;51.494;11.974;2023-07-24T12:09:59;6.60;;;4.72;;
9970;SDS011;5026;51.494;11.974;2023-07-24T12:12:37;11.93;;;5.68;;
9970;SDS011;5026;51.494;11.974;2023-07-24T12:15:06;8.40;;;5.28;;
9970;SDS011;5026;51.494;11.974;2023-07-24T12:17:33;10.02;;;5.40;;
9970;SDS011;5026;51.494;11.974;2023-07-24T12:20:01;7.68;;;5.25;;
9970;SDS011;5026;51.494;11.974;2023-07-24T12:22:29;10.43;;;5.13;;
9970;SDS011;5026;51.494;11.974;2023-07-24T12:24:56;6.93;;;4.38;;
9970;SDS011;5026;51.494;11.974;2023-07-24T12:27:23;8.90;;;5.00;;
9970;SDS011;5026;51.494;11.974;2023-07-24T12:29:52;8.25;;;5.15;;
9970;SDS011;5026;51.494;11.974;2023-07-24T12:32:19;9.10;;;4.93;;
9970;SDS011;5026;51.494;11.974;2023-07-24T12:34:47;6.57;;;4.97;;
9970;SDS011;5026;51.494;11.974;2023-07-24T12:37:15;9.57;;;5.07;;
9970;SDS011;5026;51.494;11.974;2023-07-24T12:39:42;8.65;;;4.80;;
9970;SDS011;5026;51.494;11.974;2023-07-24T12:42:10;8.40;;;5.45;;
9970;SDS011;5026;51.494;11.974;2023-07-24T12:44:37;9.65;;;5.75;;
9970;SDS011;5026;51.494;11.974;2023-07-24T12:47:05;7.65;;;5.30;;
9970;SDS011;5026;51.494;11.974;2023-07-24T12:49:32;11.35;;;6.22;;
9970;SDS011;5026;51.494;11.974;2023-07-24T12:51:59;8.43;;;5.25;;
9970;SDS011;5026;51.494;11.974;2023-07-24T12:54:26;10.07;;;5.35;;
9970;SDS011;5026;51.494;11.974;2023-07-24T12:56:54;6.28;;;4.72;;
9970;SDS011;5026;51.494;11.974;2023-07-24T12:59:20;9.73;;;5.00;;
9970;SDS011;5026;51.494;11.974;2023-07-24T13:01:47;8.23;;;4.80;;
9970;SDS011;5026;51.494;11.974;2023-07-24T13:04:16;6.57;;;4.43;;
9970;SDS011;5026;51.494;11.974;2023-07-24T13:06:43;8.55;;;4.90;;
9970;SDS011;5026;51.494;11.974;2023-07-24T13:09:10;8.65;;;5.05;;
9970;SDS011;5026;51.494;11.974;2023-07-24T13:11:37;11.60;;;5.82;;
9970;SDS011;5026;51.494;11.974;2023-07-24T13:14:04;9.15;;;4.60;;
9970;SDS011;5026;51.494;11.974;2023-07-24T13:16:31;9.48;;;5.15;;
9970;SDS011;5026;51.494;11.974;2023-07-24T13:18:58;7.68;;;4.43;;
9970;SDS011;5026;51.494;11.974;2023-07-24T13:21:26;11.10;;;5.68;;
9970;SDS011;5026;51.494;11.974;2023-07-24T13:23:53;8.88;;;5.45;;
9970;SDS011;5026;51.494;11.974;2023-07-24T13:26:21;7.05;;;5.57;;
9970;SDS011;5026;51.494;11.974;2023-07-24T13:28:48;10.15;;;5.32;;
9970;SDS011;5026;51.494;11.974;2023-07-24T13:31:16;7.80;;;5.30;;
9970;SDS011;5026;51.494;11.974;2023-07-24T13:33:43;7.40;;;5.38;;
9970;SDS011;5026;51.494;11.974;2023-07-24T13:36:11;8.50;;;5.30;;
9970;SDS011;5026;51.494;11.974;2023-07-24T13:38:40;9.18;;;5.55;;
9970;SDS011;5026;51.494;11.974;2023-07-24T13:41:07;13.50;;;6.18;;
9970;SDS011;5026;51.494;11.974;2023-07-24T13:43:34;9.88;;;5.25;;
9970;SDS011;5026;51.494;11.974;2023-07-24T13:46:01;13.43;;;7.15;;
9970;SDS011;5026;51.494;11.974;2023-07-24T13:48:29;9.43;;;5.95;;
9970;SDS011;5026;51.494;11.974;2023-07-24T13:50:56;10.52;;;6.00;;
9970;SDS011;5026;51.494;11.974;2023-07-24T13:53:23;16.80;;;7.20;;
9970;SDS011;5026;51.494;11.974;2023-07-24T13:55:51;13.60;;;6.18;;
9970;SDS011;5026;51.494;11.974;2023-07-24T13:58:19;9.00;;;5.63;;
9970;SDS011;5026;51.494;11.974;2023-07-24T14:00:46;9.25;;;6.40;;
9970;SDS011;5026;51.494;11.974;2023-07-24T14:03:13;9.20;;;5.38;;
9970;SDS011;5026;51.494;11.974;2023-07-24T14:05:40;11.63;;;5.10;;
9970;SDS011;5026;51.494;11.974;2023-07-24T14:08:07;7.82;;;4.55;;
9970;SDS011;5026;51.494;11.974;2023-07-24T14:10:34;7.82;;;4.90;;
9970;SDS011;5026;51.494;11.974;2023-07-24T14:13:02;6.28;;;4.55;;
9970;SDS011;5026;51.494;11.974;2023-07-24T14:15:29;11.38;;;4.90;;
9970;SDS011;5026;51.494;11.974;2023-07-24T14:17:56;9.05;;;5.60;;
9970;SDS011;5026;51.494;11.974;2023-07-24T14:20:24;8.88;;;4.95;;
9970;SDS011;5026;51.494;11.974;2023-07-24T14:22:51;8.88;;;4.50;;
9970;SDS011;5026;51.494;11.974;2023-07-24T14:25:18;8.13;;;4.72;;
9970;SDS011;5026;51.494;11.974;2023-07-24T14:27:45;10.13;;;4.78;;
9970;SDS011;5026;51.494;11.974;2023-07-24T14:30:14;8.82;;;4.75;;
9970;SDS011;5026;51.494;11.974;2023-07-24T14:32:41;8.50;;;4.75;;
9970;SDS011;5026;51.494;11.974;2023-07-24T14:35:07;7.65;;;4.85;;
9970;SDS011;5026;51.494;11.974;2023-07-24T14:37:35;11.65;;;5.32;;
9970;SDS011;5026;51.494;11.974;2023-07-24T14:40:02;7.45;;;4.50;;
9970;SDS011;5026;51.494;11.974;2023-07-24T14:42:29;8.70;;;5.00;;
9970;SDS011;5026;51.494;11.974;2023-07-24T14:44:56;8.98;;;5.80;;
9970;SDS011;5026;51.494;11.974;2023-07-24T14:47:28;9.13;;;4.60;;
9970;SDS011;5026;51.494;11.974;2023-07-24T14:49:56;6.10;;;4.70;;
9970;SDS011;5026;51.494;11.974;2023-07-24T14:52:23;8.38;;;4.82;;
9970;SDS011;5026;51.494;11.974;2023-07-24T14:54:51;11.18;;;5.38;;
9970;SDS011;5026;51.494;11.974;2023-07-24T14:57:18;11.98;;;5.15;;
9970;SDS011;5026;51.494;11.974;2023-07-24T14:59:45;7.90;;;5.22;;
9970;SDS011;5026;51.494;11.974;2023-07-24T15:02:11;13.07;;;5.22;;
9970;SDS011;5026;51.494;11.974;2023-07-24T15:04:40;8.27;;;4.40;;